Decoded Metar for EYKA (KAUNAS in LITHUANIA) (IATA:N/A) | Meteo·Mobile Aviation Weather
aviador You're here:

EYKA Decoded Metar

KAUNAS in LITHUANIA
Report Time2019-07-23 09:50:00
UTC Time2019-07-23 10:16:09
Flight Rules vfr VFR
Wind300° at 07 kt
W.Decomp.*RWY 26: 5.8 kt HW 3.9 kt RCW
Visibility9999 m
Phenomena:N/A
Clouds:Scattered 035 Hf
Overcast 043 Hf
Expected CloudBase > 3,600 ft AGL from Temp-Dew spread
Ceiling4,300 ft
Temp21°C (ISA +7)
Dew Point12°C (57% RH)
AAT19.1°C
QNH1016 hPa
Density Alt1,099 ft
Elevation253 ft
Report Wrong Elevation
Raw Report
EYKA 230950Z 30007KT 260V010 9999 SCT035 OVC043 21/12 Q1016=

Extra information for EYKA:More info

Metar Taf Metar & Taf Last 4 Metars F.Rules Stats Wind Profile Meteogram Temp Stats Airport Information Weather charts Add Link Nearby VenuesMetar ALERT Operation Metar Decoded Social comments